createdAt,value
2022-07-27T00:01:04.655Z,0.97
2022-07-27T00:03:32.588Z,0.80
2022-07-27T00:06:00.525Z,0.90
2022-07-27T00:08:28.601Z,0.80
2022-07-27T00:10:57.210Z,0.70
2022-07-27T00:13:27.003Z,0.80
2022-07-27T00:15:55.545Z,0.83
2022-07-27T00:18:23.468Z,0.70
2022-07-27T00:20:51.351Z,0.80
2022-07-27T00:23:19.197Z,0.80
2022-07-27T00:25:47.007Z,0.70
2022-07-27T00:28:15.051Z,0.90
2022-07-27T00:30:44.320Z,1.00
2022-07-27T00:33:16.988Z,0.70
2022-07-27T00:35:45.871Z,0.77
2022-07-27T00:38:16.541Z,0.80
2022-07-27T00:40:45.116Z,0.77
2022-07-27T00:43:13.679Z,0.80
2022-07-27T00:45:41.695Z,0.83
2022-07-27T00:48:10.937Z,0.90
2022-07-27T00:50:41.856Z,0.77
2022-07-27T00:53:10.073Z,0.70
2022-07-27T00:55:39.448Z,0.80
2022-07-27T00:58:08.755Z,0.80
2022-07-27T01:00:38.477Z,0.77
2022-07-27T01:03:08.768Z,0.90
2022-07-27T01:05:43.059Z,0.77
2022-07-27T01:08:13.890Z,0.70
2022-07-27T01:10:43.407Z,0.80
2022-07-27T01:13:12.362Z,0.70
2022-07-27T01:15:41.546Z,0.70
2022-07-27T01:18:13.003Z,0.90
2022-07-27T01:20:42.974Z,0.80
2022-07-27T01:23:12.227Z,0.73
2022-07-27T01:25:42.558Z,0.70
2022-07-27T01:28:10.834Z,1.10
2022-07-27T01:30:38.737Z,0.80
2022-07-27T01:33:07.912Z,0.80
2022-07-27T01:35:36.516Z,0.80
2022-07-27T01:38:04.985Z,0.90
2022-07-27T01:40:36.708Z,0.93
2022-07-27T01:43:05.679Z,0.80
2022-07-27T01:45:33.705Z,0.90
2022-07-27T01:48:01.677Z,1.03
2022-07-27T01:50:29.938Z,0.93
2022-07-27T01:52:57.971Z,1.10
2022-07-27T01:55:25.906Z,1.00
2022-07-27T01:57:55.223Z,0.80
2022-07-27T02:00:23.280Z,0.90
2022-07-27T02:02:51.177Z,0.80
2022-07-27T02:05:19.410Z,0.80
2022-07-27T02:07:47.491Z,0.90
2022-07-27T02:10:15.349Z,0.83
2022-07-27T02:12:42.803Z,0.77
2022-07-27T02:15:14.905Z,1.10
2022-07-27T02:17:45.393Z,1.10
2022-07-27T02:20:14.753Z,0.90
2022-07-27T02:22:42.729Z,1.00
2022-07-27T02:25:11.961Z,0.90
2022-07-27T02:27:40.563Z,1.10
2022-07-27T02:30:10.120Z,1.07
2022-07-27T02:32:40.500Z,1.00
2022-07-27T02:35:19.769Z,0.97
2022-07-27T02:37:48.983Z,1.10
2022-07-27T02:40:18.509Z,1.13
2022-07-27T02:42:48.026Z,1.10
2022-07-27T02:45:16.674Z,1.10
2022-07-27T02:47:46.123Z,1.30
2022-07-27T02:50:14.222Z,1.10
2022-07-27T02:52:42.312Z,1.20
2022-07-27T02:55:11.712Z,1.00
2022-07-27T02:57:41.076Z,1.27
2022-07-27T03:00:12.372Z,1.10
2022-07-27T03:02:40.445Z,1.03
2022-07-27T03:05:12.537Z,1.10
2022-07-27T03:07:40.503Z,1.33
2022-07-27T03:10:09.243Z,1.10
2022-07-27T03:12:37.125Z,1.33
2022-07-27T03:15:05.774Z,1.03
2022-07-27T03:17:34.042Z,1.00
2022-07-27T03:20:02.021Z,1.10
2022-07-27T03:22:32.677Z,1.13
2022-07-27T03:25:00.809Z,1.23
2022-07-27T03:27:29.348Z,1.00
2022-07-27T03:29:57.370Z,1.13
2022-07-27T03:32:25.528Z,1.40
2022-07-27T03:34:53.830Z,1.20
2022-07-27T03:37:21.797Z,1.27
2022-07-27T03:39:51.071Z,1.50
2022-07-27T03:42:18.932Z,1.30
2022-07-27T03:44:46.791Z,1.20
2022-07-27T03:47:14.859Z,1.23
2022-07-27T03:49:42.676Z,1.17
2022-07-27T03:52:14.314Z,1.20
2022-07-27T03:54:45.484Z,1.53
2022-07-27T03:57:15.164Z,1.30
2022-07-27T03:59:43.256Z,1.30
2022-07-27T04:02:11.197Z,1.30
2022-07-27T04:04:39.187Z,1.30
2022-07-27T04:07:07.037Z,1.13
2022-07-27T04:09:35.995Z,1.37
2022-07-27T04:12:03.846Z,1.37
2022-07-27T04:14:33.091Z,1.13
2022-07-27T04:17:01.072Z,1.30
2022-07-27T04:19:29.106Z,1.57
2022-07-27T04:21:57.162Z,1.37
2022-07-27T04:24:25.029Z,1.60
2022-07-27T04:26:52.887Z,1.57
2022-07-27T04:29:21.509Z,1.40
2022-07-27T04:31:51.126Z,1.80
2022-07-27T04:34:20.572Z,1.77
2022-07-27T04:36:49.869Z,1.33
2022-07-27T04:39:17.711Z,1.10
2022-07-27T04:41:46.978Z,1.57
2022-07-27T04:44:14.877Z,1.33
2022-07-27T04:46:42.766Z,1.70
2022-07-27T04:49:12.364Z,1.30
2022-07-27T04:51:43.885Z,1.10
2022-07-27T04:54:12.489Z,1.60
2022-07-27T04:56:40.491Z,1.33
2022-07-27T04:59:08.539Z,1.90
2022-07-27T05:01:37.081Z,1.40
2022-07-27T05:04:05.699Z,1.60
2022-07-27T05:06:34.968Z,1.47
2022-07-27T05:09:02.920Z,1.50
2022-07-27T05:11:30.837Z,1.37
2022-07-27T05:13:58.983Z,1.40
2022-07-27T05:16:29.114Z,1.70
2022-07-27T05:18:57.580Z,1.60
2022-07-27T05:21:26.096Z,1.40
2022-07-27T05:23:55.714Z,1.80
2022-07-27T05:26:23.995Z,1.50
2022-07-27T05:28:51.905Z,1.60
2022-07-27T05:31:19.850Z,1.70
2022-07-27T05:33:49.303Z,1.87
2022-07-27T05:36:18.877Z,1.53
2022-07-27T05:38:46.764Z,1.83
2022-07-27T05:41:16.242Z,1.93
2022-07-27T05:43:44.555Z,1.70
2022-07-27T05:46:12.526Z,1.53
2022-07-27T05:48:40.582Z,1.67
2022-07-27T05:51:09.523Z,1.70
2022-07-27T05:53:37.467Z,1.53
2022-07-27T05:56:07.827Z,1.70
2022-07-27T05:58:37.145Z,1.83
2022-07-27T06:01:05.231Z,1.73
2022-07-27T06:03:33.549Z,1.70
2022-07-27T06:06:19.496Z,1.77
2022-07-27T06:08:47.349Z,1.60
2022-07-27T06:11:15.454Z,1.77
2022-07-27T06:13:44.794Z,1.57
2022-07-27T06:16:12.747Z,1.70
2022-07-27T06:18:42.406Z,1.70
2022-07-27T06:21:10.682Z,1.80
2022-07-27T06:23:38.686Z,1.40
2022-07-27T06:26:07.434Z,1.70
2022-07-27T06:28:35.292Z,1.43
2022-07-27T06:31:04.637Z,1.93
2022-07-27T06:33:35.247Z,1.80
2022-07-27T06:36:03.414Z,1.53
2022-07-27T06:38:31.451Z,1.53
2022-07-27T06:40:59.534Z,1.50
2022-07-27T06:43:29.482Z,1.53
2022-07-27T06:45:59.372Z,1.90
2022-07-27T06:48:28.739Z,1.90
2022-07-27T06:50:57.152Z,1.73
2022-07-27T06:53:25.519Z,1.60
2022-07-27T06:55:53.640Z,1.63
2022-07-27T06:58:23.639Z,2.03
2022-07-27T07:00:51.614Z,1.70
2022-07-27T07:03:19.722Z,1.50
2022-07-27T07:05:49.002Z,1.53
2022-07-27T07:08:16.945Z,1.60
2022-07-27T07:10:46.288Z,1.70
2022-07-27T07:13:14.492Z,1.50
2022-07-27T07:15:43.851Z,1.80
2022-07-27T07:18:12.753Z,1.70
2022-07-27T07:20:41.168Z,1.70
2022-07-27T07:23:11.028Z,1.53
2022-07-27T07:25:39.596Z,1.63
2022-07-27T07:28:08.254Z,1.70
2022-07-27T07:30:36.777Z,1.40
2022-07-27T07:33:05.147Z,1.40
2022-07-27T07:35:33.821Z,1.60
2022-07-27T07:38:01.858Z,2.10
2022-07-27T07:40:46.500Z,1.60
2022-07-27T07:43:15.166Z,1.83
2022-07-27T07:45:50.543Z,2.00
2022-07-27T07:48:19.434Z,1.73
2022-07-27T07:50:51.300Z,2.37
2022-07-27T07:53:20.576Z,1.47
2022-07-27T07:55:49.993Z,1.57
2022-07-27T07:58:18.056Z,1.40
2022-07-27T08:00:45.977Z,1.40
2022-07-27T08:03:13.949Z,1.93
2022-07-27T08:05:42.028Z,1.50
2022-07-27T08:08:10.162Z,1.73
2022-07-27T08:10:38.099Z,1.40
2022-07-27T08:13:07.423Z,1.47
2022-07-27T08:15:36.488Z,1.80
2022-07-27T08:18:05.712Z,1.77
2022-07-27T08:20:33.963Z,2.33
2022-07-27T08:23:02.385Z,1.30
2022-07-27T08:25:30.812Z,3.17
2022-07-27T08:27:58.919Z,1.70
2022-07-27T08:30:28.523Z,1.37
2022-07-27T08:33:01.190Z,1.53
2022-07-27T08:35:30.409Z,1.70
2022-07-27T08:37:59.294Z,1.70
2022-07-27T08:40:39.656Z,1.50
2022-07-27T08:43:09.780Z,1.40
2022-07-27T08:45:41.519Z,1.87
2022-07-27T08:48:14.467Z,1.37
2022-07-27T08:50:42.942Z,1.37
2022-07-27T08:53:13.767Z,1.33
2022-07-27T08:55:44.032Z,1.30
2022-07-27T08:58:14.161Z,1.40
2022-07-27T09:00:45.084Z,1.60
2022-07-27T09:03:19.120Z,1.87
2022-07-27T09:05:50.145Z,1.40
2022-07-27T09:08:22.500Z,1.50
2022-07-27T09:10:50.999Z,1.60
2022-07-27T09:13:22.459Z,1.40
2022-07-27T09:18:42.022Z,1.50
2022-07-27T09:21:16.393Z,1.50
2022-07-27T09:23:48.073Z,1.40
2022-07-27T09:26:35.144Z,1.43
2022-07-27T09:29:05.536Z,1.20
2022-07-27T09:31:42.633Z,1.50
2022-07-27T09:34:11.699Z,1.30
2022-07-27T09:36:53.295Z,1.60
2022-07-27T09:39:22.649Z,1.40
2022-07-27T09:41:53.129Z,2.20
2022-07-27T09:44:43.267Z,1.63
2022-07-27T09:47:26.885Z,1.20
2022-07-27T09:49:57.171Z,1.97
2022-07-27T09:52:30.793Z,1.30
2022-07-27T09:55:05.249Z,1.30
2022-07-27T09:57:52.156Z,1.50
2022-07-27T10:00:20.767Z,1.80
2022-07-27T10:02:51.109Z,1.40
2022-07-27T10:05:34.370Z,1.30
2022-07-27T10:08:08.664Z,1.33
2022-07-27T10:10:37.933Z,1.40
2022-07-27T10:13:06.630Z,1.60
2022-07-27T10:15:34.889Z,1.43
2022-07-27T10:18:10.048Z,1.30
2022-07-27T10:20:42.368Z,1.43
2022-07-27T10:23:27.201Z,1.30
2022-07-27T10:26:21.622Z,1.33
2022-07-27T10:28:51.183Z,1.23
2022-07-27T10:31:20.993Z,1.10
2022-07-27T10:33:52.251Z,1.08
2022-07-27T10:36:47.750Z,1.50
2022-07-27T10:39:30.115Z,1.33
2022-07-27T10:42:19.545Z,1.27
2022-07-27T10:45:12.750Z,1.50
2022-07-27T10:47:44.615Z,1.30
2022-07-27T10:50:30.801Z,2.22
2022-07-27T10:53:17.760Z,1.40
2022-07-27T10:55:47.604Z,1.37
2022-07-27T10:58:50.254Z,1.50
2022-07-27T11:01:20.445Z,1.47
2022-07-27T11:03:52.641Z,1.40
2022-07-27T11:06:37.811Z,1.25
2022-07-27T11:12:05.601Z,1.60
2022-07-27T11:14:45.095Z,1.20
2022-07-27T11:20:03.881Z,1.00
2022-07-27T11:25:24.631Z,1.40
2022-07-27T11:27:53.261Z,1.35
2022-07-27T11:30:26.556Z,1.40
2022-07-27T11:32:55.212Z,1.30
2022-07-27T11:35:24.070Z,1.40
2022-07-27T11:38:02.267Z,1.23
2022-07-27T11:41:10.452Z,1.37
2022-07-27T11:43:38.466Z,1.20
2022-07-27T11:46:18.638Z,1.00
2022-07-27T11:49:08.768Z,1.00
2022-07-27T11:51:40.090Z,1.30
2022-07-27T11:54:11.347Z,1.20
2022-07-27T11:56:43.281Z,1.00
2022-07-27T11:59:25.374Z,1.10
2022-07-27T12:01:55.146Z,1.40
2022-07-27T12:04:25.804Z,1.42
2022-07-27T12:07:05.152Z,0.90
2022-07-27T12:09:38.720Z,0.90
2022-07-27T12:12:13.965Z,1.20
2022-07-27T12:14:44.127Z,1.00
2022-07-27T12:17:31.138Z,1.05
2022-07-27T12:20:01.580Z,1.17
2022-07-27T12:22:32.137Z,1.00
2022-07-27T12:25:05.643Z,0.93
2022-07-27T12:27:39.093Z,1.10
2022-07-27T12:30:11.254Z,1.08
2022-07-27T12:32:42.802Z,0.98
2022-07-27T12:35:25.276Z,1.00
2022-07-27T12:38:00.964Z,1.30
2022-07-27T12:40:31.419Z,1.02
2022-07-27T12:43:01.385Z,1.10
2022-07-27T12:45:34.219Z,0.90
2022-07-27T12:48:06.494Z,1.10
2022-07-27T12:50:34.476Z,1.25
2022-07-27T12:53:02.750Z,1.00
2022-07-27T12:55:32.062Z,0.90
2022-07-27T12:58:00.130Z,1.05
2022-07-27T13:00:33.923Z,0.98
2022-07-27T13:03:04.277Z,0.98
2022-07-27T13:05:32.940Z,1.00
2022-07-27T13:08:01.131Z,1.05
2022-07-27T13:10:28.975Z,0.88
2022-07-27T13:12:59.058Z,1.23
2022-07-27T13:15:27.413Z,0.90
2022-07-27T13:17:55.293Z,0.98
2022-07-27T13:20:23.399Z,0.90
2022-07-27T13:22:51.876Z,0.98
2022-07-27T13:25:19.966Z,1.15
2022-07-27T13:27:49.886Z,1.05
2022-07-27T13:30:19.546Z,1.33
2022-07-27T13:32:47.945Z,1.00
2022-07-27T13:35:16.873Z,1.17
2022-07-27T13:37:45.980Z,1.20
2022-07-27T13:40:15.010Z,1.10
2022-07-27T13:42:42.856Z,1.10
2022-07-27T13:45:12.214Z,1.20
2022-07-27T13:47:42.393Z,1.00
2022-07-27T13:50:18.366Z,1.17
2022-07-27T13:52:47.647Z,0.90
2022-07-27T13:55:16.324Z,1.10
2022-07-27T13:57:44.605Z,1.00
2022-07-27T14:00:13.311Z,0.90
2022-07-27T14:02:42.649Z,0.93
2022-07-27T14:05:12.942Z,0.77
2022-07-27T14:07:42.423Z,0.90
2022-07-27T14:10:30.316Z,0.90
2022-07-27T14:13:08.123Z,0.93
2022-07-27T14:15:53.056Z,1.10
2022-07-27T14:18:25.387Z,0.80
2022-07-27T14:20:53.542Z,1.10
2022-07-27T14:23:21.430Z,1.10
2022-07-27T14:25:49.354Z,1.10
2022-07-27T14:28:17.236Z,1.15
2022-07-27T14:30:45.350Z,1.05
2022-07-27T14:33:13.289Z,0.98
2022-07-27T14:35:42.492Z,1.23
2022-07-27T14:38:11.438Z,1.10
2022-07-27T14:40:40.462Z,0.90
2022-07-27T14:43:09.575Z,0.98
2022-07-27T14:45:44.791Z,0.90
2022-07-27T14:48:21.096Z,0.93
2022-07-27T14:50:54.473Z,1.15
2022-07-27T14:53:22.430Z,1.00
2022-07-27T14:55:50.265Z,0.95
2022-07-27T14:58:18.127Z,1.10
2022-07-27T15:00:46.245Z,0.90
2022-07-27T15:03:15.152Z,1.13
2022-07-27T15:05:50.330Z,0.95
2022-07-27T15:08:20.486Z,0.80
2022-07-27T15:10:48.911Z,0.65
2022-07-27T15:13:17.845Z,0.75
2022-07-27T15:15:48.277Z,1.02
2022-07-27T15:18:18.661Z,0.82
2022-07-27T15:20:46.961Z,1.00
2022-07-27T15:23:14.921Z,1.15
2022-07-27T15:25:44.197Z,0.82
2022-07-27T15:28:12.219Z,0.80
2022-07-27T15:30:40.633Z,0.90
2022-07-27T15:33:08.797Z,0.82
2022-07-27T15:35:36.617Z,0.88
2022-07-27T15:38:04.566Z,0.93
2022-07-27T15:40:38.316Z,0.80
2022-07-27T15:43:10.576Z,0.80
2022-07-27T15:45:39.311Z,0.75
2022-07-27T15:48:08.615Z,0.80
2022-07-27T15:50:36.691Z,0.75
2022-07-27T15:53:05.583Z,0.73
2022-07-27T15:55:33.671Z,0.70
2022-07-27T15:58:01.716Z,1.00
2022-07-27T16:00:35.525Z,0.80
2022-07-27T16:03:05.725Z,0.65
2022-07-27T16:05:34.117Z,0.75
2022-07-27T16:08:01.967Z,0.80
2022-07-27T16:10:29.895Z,0.90
2022-07-27T16:12:58.527Z,0.70
2022-07-27T16:15:40.387Z,0.80
2022-07-27T16:18:11.282Z,1.02
2022-07-27T16:20:39.315Z,0.75
2022-07-27T16:23:17.834Z,0.80
2022-07-27T16:26:03.377Z,0.80
2022-07-27T16:28:33.092Z,0.90
2022-07-27T16:31:01.114Z,0.70
2022-07-27T16:33:30.439Z,0.88
2022-07-27T16:35:58.416Z,0.70
2022-07-27T16:38:26.509Z,0.80
2022-07-27T16:40:54.342Z,0.98
2022-07-27T16:43:22.242Z,0.90
2022-07-27T16:45:56.541Z,0.80
2022-07-27T16:48:24.422Z,1.00
2022-07-27T16:50:53.539Z,0.55
2022-07-27T16:53:21.371Z,0.70
2022-07-27T16:55:49.308Z,0.98
2022-07-27T16:58:17.529Z,0.65
2022-07-27T17:00:45.510Z,0.77
2022-07-27T17:03:13.273Z,1.15
2022-07-27T17:05:41.237Z,0.88
2022-07-27T17:08:11.028Z,0.90
2022-07-27T17:10:39.726Z,0.90
2022-07-27T17:13:13.308Z,0.90
2022-07-27T17:15:41.513Z,0.70
2022-07-27T17:18:09.394Z,0.90
2022-07-27T17:20:37.556Z,1.00
2022-07-27T17:23:05.669Z,1.40
2022-07-27T17:25:35.032Z,1.15
2022-07-27T17:28:03.462Z,1.00
2022-07-27T17:30:36.377Z,2.05
2022-07-27T17:33:06.109Z,2.13
2022-07-27T17:35:35.118Z,0.80
2022-07-27T17:38:06.537Z,2.10
2022-07-27T17:40:36.542Z,3.53
2022-07-27T17:43:04.392Z,1.00
2022-07-27T17:45:32.352Z,2.28
2022-07-27T17:48:00.187Z,1.10
2022-07-27T17:50:28.103Z,1.10
2022-07-27T17:52:57.699Z,0.95
2022-07-27T17:55:25.923Z,0.90
2022-07-27T17:57:55.275Z,1.52
2022-07-27T18:00:23.210Z,1.08
2022-07-27T18:02:51.046Z,1.15
2022-07-27T18:05:18.883Z,0.80
2022-07-27T18:07:46.945Z,1.05
2022-07-27T18:10:36.719Z,0.90
2022-07-27T18:13:08.560Z,0.90
2022-07-27T18:15:50.348Z,1.10
2022-07-27T18:18:20.567Z,0.77
2022-07-27T18:20:51.363Z,0.80
2022-07-27T18:23:19.560Z,0.80
2022-07-27T18:25:47.901Z,1.10
2022-07-27T18:28:18.865Z,0.80
2022-07-27T18:30:48.021Z,0.80
2022-07-27T18:33:16.670Z,0.80
2022-07-27T18:35:45.201Z,0.70
2022-07-27T18:38:14.246Z,0.80
2022-07-27T18:40:46.129Z,0.90
2022-07-27T18:43:14.649Z,0.93
2022-07-27T18:45:44.121Z,0.90
2022-07-27T18:48:12.355Z,1.17
2022-07-27T18:50:41.234Z,1.10
2022-07-27T18:53:10.225Z,1.00
2022-07-27T18:55:38.956Z,0.90
2022-07-27T18:58:07.363Z,1.23
2022-07-27T19:00:35.229Z,1.10
2022-07-27T19:03:04.567Z,1.20
2022-07-27T19:05:41.081Z,1.50
2022-07-27T19:08:13.292Z,1.53
2022-07-27T19:10:42.465Z,1.53
2022-07-27T19:13:10.982Z,1.10
2022-07-27T19:15:39.055Z,1.30
2022-07-27T19:18:09.384Z,0.90
2022-07-27T19:20:37.653Z,1.27
2022-07-27T19:23:05.845Z,1.10
2022-07-27T19:25:34.668Z,1.07
2022-07-27T19:28:03.156Z,1.10
2022-07-27T19:30:31.178Z,1.10
2022-07-27T19:32:59.233Z,1.37
2022-07-27T19:35:28.591Z,1.10
2022-07-27T19:37:56.494Z,1.17
2022-07-27T19:43:12.139Z,1.23
2022-07-27T19:45:40.874Z,1.20
2022-07-27T19:48:09.219Z,1.03
2022-07-27T19:50:38.476Z,1.20
2022-07-27T19:53:06.346Z,1.23
2022-07-27T19:55:34.570Z,1.10
2022-07-27T19:58:02.437Z,1.00
2022-07-27T20:00:30.814Z,1.20
2022-07-27T20:02:58.808Z,1.30
2022-07-27T20:05:26.728Z,1.20
2022-07-27T20:07:55.987Z,0.93
2022-07-27T20:10:25.205Z,0.90
2022-07-27T20:12:53.587Z,0.70
2022-07-27T20:15:22.461Z,1.03
2022-07-27T20:17:50.798Z,0.80
2022-07-27T20:20:18.952Z,1.00
2022-07-27T20:22:46.922Z,1.17
2022-07-27T20:25:16.249Z,0.83
2022-07-27T20:27:44.189Z,1.20
2022-07-27T20:30:16.258Z,1.10
2022-07-27T20:32:44.673Z,1.00
2022-07-27T20:35:12.593Z,1.10
2022-07-27T20:37:41.115Z,1.10
2022-07-27T20:40:11.420Z,0.93
2022-07-27T20:42:41.341Z,1.20
2022-07-27T20:45:11.480Z,0.90
2022-07-27T20:47:39.485Z,1.13
2022-07-27T20:50:09.269Z,1.10
2022-07-27T20:52:37.370Z,0.93
2022-07-27T20:55:06.161Z,0.80
2022-07-27T20:57:34.224Z,0.90
2022-07-27T21:00:04.494Z,1.00
2022-07-27T21:02:32.611Z,0.87
2022-07-27T21:05:00.569Z,0.90
2022-07-27T21:07:28.597Z,1.00
2022-07-27T21:09:56.974Z,1.00
2022-07-27T21:12:24.862Z,1.00
2022-07-27T21:14:52.773Z,0.93
2022-07-27T21:17:21.974Z,0.77
2022-07-27T21:19:53.272Z,0.90
2022-07-27T21:22:21.258Z,1.30
2022-07-27T21:24:49.529Z,0.77
2022-07-27T21:27:20.265Z,0.90
2022-07-27T21:29:49.542Z,1.00
2022-07-27T21:32:17.618Z,0.90
2022-07-27T21:34:46.828Z,0.90
2022-07-27T21:37:14.679Z,1.10
2022-07-27T21:39:45.594Z,0.90
2022-07-27T21:42:13.594Z,0.80
2022-07-27T21:44:41.608Z,1.10
2022-07-27T21:47:13.761Z,1.07
2022-07-27T21:49:42.659Z,0.83
2022-07-27T21:52:12.142Z,0.90
2022-07-27T21:54:40.389Z,0.90
2022-07-27T21:57:08.244Z,1.23
2022-07-27T21:59:36.055Z,1.07
2022-07-27T22:02:04.083Z,0.97
2022-07-27T22:04:32.090Z,1.00
2022-07-27T22:07:00.023Z,1.20
2022-07-27T22:09:29.331Z,1.00
2022-07-27T22:11:57.734Z,1.00
2022-07-27T22:14:25.619Z,1.07
2022-07-27T22:16:54.129Z,0.93
2022-07-27T22:19:22.185Z,0.90
2022-07-27T22:21:50.405Z,1.30
2022-07-27T22:24:18.415Z,1.10
2022-07-27T22:26:49.285Z,1.40
2022-07-27T22:29:20.219Z,1.07
2022-07-27T22:31:48.073Z,1.20
2022-07-27T22:34:16.414Z,1.07
2022-07-27T22:36:45.281Z,1.07
2022-07-27T22:39:13.863Z,0.90
2022-07-27T22:41:41.634Z,1.00
2022-07-27T22:44:11.900Z,1.20
2022-07-27T22:46:39.939Z,0.97
2022-07-27T22:49:09.272Z,1.00
2022-07-27T22:51:50.019Z,1.50
2022-07-27T22:54:21.038Z,1.27
2022-07-27T22:56:48.947Z,1.23
2022-07-27T22:59:18.139Z,1.20
2022-07-27T23:01:48.263Z,1.07
2022-07-27T23:04:18.294Z,1.40
2022-07-27T23:06:46.571Z,1.20
2022-07-27T23:09:15.447Z,1.20
2022-07-27T23:11:43.949Z,1.30
2022-07-27T23:14:12.503Z,1.00
2022-07-27T23:16:43.515Z,1.10
2022-07-27T23:19:30.044Z,1.47
2022-07-27T23:22:01.168Z,1.20
2022-07-27T23:24:29.849Z,1.00
2022-07-27T23:26:57.709Z,1.30
2022-07-27T23:29:25.724Z,0.93
2022-07-27T23:31:54.918Z,1.17
2022-07-27T23:34:23.856Z,1.10
2022-07-27T23:36:51.793Z,1.10
2022-07-27T23:39:19.627Z,1.20
2022-07-27T23:41:49.922Z,1.20
2022-07-27T23:44:18.291Z,1.13
2022-07-27T23:46:46.202Z,1.40
2022-07-27T23:49:15.671Z,1.20
2022-07-27T23:51:43.630Z,1.13
2022-07-27T23:54:11.919Z,1.57
2022-07-27T23:56:40.100Z,1.20
2022-07-27T23:59:07.952Z,1.10
